Gilwern, United Kingdom
Current Conditions -  °F | °C
As of 6:20 AM on Friday 19 Dec 2014 (Local Time) from EGFF Reporting Station
Broken Clouds Broken Clouds  
Wind Chill: 39°   Ceiling: 3700
Heat Index: 46°   Visibility: 6mi
Dew Point: 45°   Wind: 18mph
Humidity: 93%   Direction: 290°WNW
Pressure: 29.88"   Gusts: NA
Location:  51.82°N, 3.09°W
Report Text: EGFF 190620Z AUTO 29016KT 9999 SCT022 BKN037 08/07 Q1012
Loading
Personal Weather Stations






























Interactive Weather Map New forecast layout! Learn more

10-Day Weather Forecast

Advertisements
Track Severe Weather on mobile